Time;durP1;ratioP1;P1;durP2;ratioP2;P2;SDS_P1;SDS_P2;PMS_P1;PMS_P2;Temp;Humidity;BMP_temperature;BMP_pressure;BME280_temperature;BME280_humidity;BME280_pressure;Samples;Min_cycle;Max_cycle;Signal;HPM_P1;HPM_P2
2023/03/19 00:00:06;;;;;;;7.30;4.38;;;;;;;9.04;79.12;101234.25;7394034;19;20309;-58
2023/03/19 00:02:32;;;;;;;8.45;4.40;;;;;;;9.05;79.34;101236.78;7391512;19;20006;-57
2023/03/19 00:04:58;;;;;;;7.55;4.15;;;;;;;9.10;79.05;101231.16;7392915;19;20035;-59
2023/03/19 00:07:23;;;;;;;6.93;4.10;;;;;;;8.96;79.15;101229.47;7395894;19;19994;-62
2023/03/19 00:10:14;;;;;;;6.60;4.38;;;;;;;8.95;79.07;101241.00;7387666;19;20010;-61
2023/03/19 00:12:40;;;;;;;6.93;4.60;;;;;;;8.96;78.83;101229.47;7395242;19;20025;-61
2023/03/19 00:15:12;;;;;;;9.30;4.85;;;;;;;8.81;79.75;101239.31;7394831;19;20012;-62
2023/03/19 00:17:38;;;;;;;7.45;4.65;;;;;;;8.70;79.91;101244.47;7394599;19;19998;-61
2023/03/19 00:20:04;;;;;;;8.02;4.50;;;;;;;8.60;80.50;101244.22;7395502;19;19994;-61
2023/03/19 00:22:36;;;;;;;8.50;4.65;;;;;;;8.57;80.45;101239.13;7392029;19;20007;-59
2023/03/19 00:25:02;;;;;;;7.80;4.80;;;;;;;8.48;80.88;101245.03;7390142;19;20002;-62
2023/03/19 00:27:28;;;;;;;7.88;4.75;;;;;;;8.44;81.25;101236.44;7393019;19;20462;-61
2023/03/19 00:29:54;;;;;;;6.70;3.90;;;;;;;8.61;80.32;101243.28;7394720;19;20005;-62
2023/03/19 00:32:20;;;;;;;8.45;4.80;;;;;;;8.70;79.55;101236.50;7393349;19;20478;-61
2023/03/19 00:34:46;;;;;;;7.22;4.63;;;;;;;8.55;79.80;101248.13;7393595;19;19995;-61
2023/03/19 00:37:12;;;;;;;8.07;4.50;;;;;;;8.54;79.95;101247.28;7391878;19;20009;-61
2023/03/19 00:39:37;;;;;;;9.27;4.68;;;;;;;8.52;80.23;101250.97;7391821;19;20436;-60
2023/03/19 00:42:03;;;;;;;6.95;4.07;;;;;;;8.46;80.19;101254.88;7394286;19;19998;-60
2023/03/19 00:44:29;;;;;;;9.55;4.40;;;;;;;8.56;79.60;101261.25;7392314;19;20003;-61
2023/03/19 00:46:55;;;;;;;6.53;3.92;;;;;;;8.65;79.55;101250.06;7391459;19;20350;-60
2023/03/19 00:49:21;;;;;;;8.38;4.25;;;;;;;8.78;79.24;101247.44;7390918;19;19991;-60
2023/03/19 00:51:46;;;;;;;6.47;3.15;;;;;;;8.85;79.07;101242.59;7392254;19;20012;-61
2023/03/19 00:54:12;;;;;;;6.35;3.60;;;;;;;8.82;78.90;101242.78;7392592;19;19995;-60
2023/03/19 00:56:38;;;;;;;5.75;3.30;;;;;;;8.87;78.90;101241.53;7391830;19;19994;-60
2023/03/19 00:59:04;;;;;;;6.05;3.40;;;;;;;8.87;78.73;101241.53;7390642;19;20686;-60
2023/03/19 01:01:30;;;;;;;5.63;2.92;;;;;;;8.77;79.16;101251.06;7390661;19;20002;-61
2023/03/19 01:03:56;;;;;;;4.90;3.00;;;;;;;8.74;79.31;101252.09;7392124;19;20002;-60
2023/03/19 01:06:22;;;;;;;5.63;2.90;;;;;;;8.87;78.98;101246.81;7392759;19;20012;-60
2023/03/19 01:08:47;;;;;;;5.45;3.15;;;;;;;8.84;78.98;101247.06;7390337;19;20507;-60
2023/03/19 01:11:15;;;;;;;6.40;2.80;;;;;;;8.86;78.90;101250.44;7390560;19;20359;-60
2023/03/19 01:13:41;;;;;;;4.35;2.85;;;;;;;8.92;78.55;101249.19;7391015;19;19999;-61
2023/03/19 01:16:07;;;;;;;5.28;3.03;;;;;;;8.98;78.04;101246.94;7389285;19;19999;-59
2023/03/19 01:18:33;;;;;;;5.75;3.30;;;;;;;8.90;78.45;101251.91;7390476;19;20093;-60
2023/03/19 01:20:59;;;;;;;5.28;3.20;;;;;;;8.90;78.49;101249.28;7392689;19;19991;-60
2023/03/19 01:23:25;;;;;;;6.00;3.30;;;;;;;8.97;78.14;101241.75;7393563;19;19998;-60
2023/03/19 01:25:51;;;;;;;6.32;3.50;;;;;;;8.85;78.23;101240.78;7391932;19;19998;-59
2023/03/19 01:28:16;;;;;;;7.32;3.35;;;;;;;8.76;78.54;101248.50;7391770;19;20454;-60
2023/03/19 01:30:42;;;;;;;6.97;3.75;;;;;;;8.70;78.57;101245.31;7391291;19;20482;-59
2023/03/19 01:33:07;;;;;;;6.15;3.08;;;;;;;8.64;78.89;101240.41;7392223;19;20005;-60
2023/03/19 01:35:33;;;;;;;5.70;3.65;;;;;;;8.68;79.08;101243.69;7391620;19;20019;-60
2023/03/19 01:37:58;;;;;;;5.78;3.80;;;;;;;8.69;78.81;101238.31;7391049;19;19999;-61
2023/03/19 01:40:24;;;;;;;6.32;3.60;;;;;;;8.79;78.65;101251.78;7392177;19;20003;-60
2023/03/19 01:42:56;;;;;;;7.07;3.85;;;;;;;8.98;78.03;101243.44;7392605;19;20010;-61
2023/03/19 01:45:32;;;;;;;8.35;3.95;;;;;;;9.04;78.00;101239.56;7389965;19;20514;-61
2023/03/19 01:47:58;;;;;;;7.28;3.47;;;;;;;9.04;77.64;101247.50;7391500;19;20022;-61
2023/03/19 01:50:36;;;;;;;6.40;3.50;;;;;;;9.03;77.65;101236.06;7391608;19;20007;-61
2023/03/19 01:53:02;;;;;;;5.88;3.50;;;;;;;9.10;77.78;101239.13;7391809;19;19999;-60
2023/03/19 01:55:28;;;;;;;6.63;3.85;;;;;;;9.19;77.33;101233.22;7389437;19;20077;-60
2023/03/19 01:57:54;;;;;;;5.88;3.50;;;;;;;9.23;76.83;101234.69;7387930;19;20353;-60
2023/03/19 02:00:20;;;;;;;6.72;3.97;;;;;;;9.20;77.01;101240.19;7385667;19;20066;-60
2023/03/19 02:02:52;;;;;;;6.20;3.63;;;;;;;9.31;76.84;101236.81;7387897;19;20013;-60
2023/03/19 02:05:24;;;;;;;4.90;3.00;;;;;;;9.36;76.63;101243.47;7384746;19;20006;-61
2023/03/19 02:07:51;;;;;;;6.15;3.67;;;;;;;9.36;76.62;101242.63;7386941;19;20030;-61
2023/03/19 02:10:19;;;;;;;5.43;3.53;;;;;;;9.36;76.45;101238.19;7391086;19;20523;-61
2023/03/19 02:12:45;;;;;;;5.40;3.28;;;;;;;9.39;76.38;101239.78;7390802;19;20006;-60
2023/03/19 02:15:11;;;;;;;5.78;3.50;;;;;;;9.38;76.29;101233.63;7388709;19;19995;-60
2023/03/19 02:17:38;;;;;;;5.85;3.28;;;;;;;9.37;76.46;101231.94;7389888;19;20003;-60
2023/03/19 02:20:12;;;;;;;7.15;3.78;;;;;;;9.37;76.56;101233.72;7390236;19;20018;-60
2023/03/19 02:23:14;;;;;;;5.80;3.50;;;;;;;9.37;76.69;101224.00;7390666;19;20023;-60
2023/03/19 02:25:46;;;;;;;5.60;3.30;;;;;;;9.41;76.33;101227.28;7389996;19;20011;-60
2023/03/19 02:28:17;;;;;;;5.60;3.30;;;;;;;9.41;76.44;101236.06;7389628;19;20007;-61
2023/03/19 02:30:44;;;;;;;6.75;3.67;;;;;;;9.39;76.55;101223.88;7390249;19;20030;-60
2023/03/19 02:33:16;;;;;;;6.68;4.10;;;;;;;9.39;76.58;101222.06;7389597;19;19998;-60
2023/03/19 02:35:44;;;;;;;6.25;3.85;;;;;;;9.34;76.71;101229.50;7389381;19;20005;-60
2023/03/19 02:38:10;;;;;;;6.80;3.92;;;;;;;9.37;76.67;101231.94;7389136;19;20417;-60
2023/03/19 02:40:42;;;;;;;8.15;4.13;;;;;;;9.37;76.42;101231.94;7388175;19;20030;-61
2023/03/19 02:43:07;;;;;;;7.13;4.28;;;;;;;9.31;76.69;101227.06;7390183;19;20011;-59
2023/03/19 02:45:33;;;;;;;6.40;3.63;;;;;;;9.37;76.54;101229.28;7386496;19;19999;-60
2023/03/19 02:47:59;;;;;;;6.53;4.10;;;;;;;9.34;76.71;101223.34;7389599;19;20174;-61
2023/03/19 02:50:25;;;;;;;7.80;4.13;;;;;;;9.38;76.74;101236.28;7388687;19;20003;-60
2023/03/19 02:52:51;;;;;;;7.03;4.10;;;;;;;9.39;76.46;101227.38;7391131;19;20009;-60
2023/03/19 02:55:17;;;;;;;7.72;4.45;;;;;;;9.37;76.43;101231.94;7388882;19;20046;-60
2023/03/19 02:57:44;;;;;;;8.55;4.47;;;;;;;9.32;76.81;101228.75;7389149;19;20078;-61
2023/03/19 03:00:11;;;;;;;7.00;4.50;;;;;;;9.28;76.85;101227.25;7389316;19;20114;-61
2023/03/19 03:02:37;;;;;;;6.95;4.35;;;;;;;9.23;77.08;101224.94;7389844;19;19995;-61
2023/03/19 03:05:04;;;;;;;8.68;4.20;;;;;;;9.26;77.34;101231.84;7386493;19;20017;-62
2023/03/19 03:07:29;;;;;;;8.63;4.80;;;;;;;9.22;77.34;101236.50;7389070;19;20006;-60
2023/03/19 03:09:55;;;;;;;8.00;5.00;;;;;;;9.20;77.26;101226.94;7387745;19;20489;-60
2023/03/19 03:12:21;;;;;;;7.30;4.60;;;;;;;9.14;77.71;101232.66;7390074;19;20110;-60
2023/03/19 03:14:50;;;;;;;8.15;4.95;;;;;;;9.14;77.75;101237.94;7387907;19;19999;-60
2023/03/19 03:17:16;;;;;;;8.52;4.78;;;;;;;9.16;77.62;101238.72;7388777;19;20007;-61
2023/03/19 03:19:41;;;;;;;9.50;5.20;;;;;;;9.13;77.63;101241.56;7388265;19;19995;-61
2023/03/19 03:22:07;;;;;;;8.40;5.10;;;;;;;9.12;77.60;101245.19;7388536;19;20510;-61
2023/03/19 03:24:32;;;;;;;7.45;4.82;;;;;;;9.13;77.60;101242.41;7388691;19;20082;-61
2023/03/19 03:26:58;;;;;;;8.20;5.18;;;;;;;9.16;77.65;101239.56;7395439;19;19999;-61
2023/03/19 03:29:24;;;;;;;8.15;5.03;;;;;;;9.18;77.33;101236.78;7393853;19;20014;-60
2023/03/19 03:31:50;;;;;;;9.18;5.07;;;;;;;9.13;77.66;101244.22;7396134;19;19991;-61
2023/03/19 03:34:16;;;;;;;10.93;5.50;;;;;;;9.16;77.61;101247.50;7394533;19;19998;-61
2023/03/19 03:36:41;;;;;;;10.07;5.15;;;;;;;9.17;77.69;101251.00;7395839;19;20006;-60
2023/03/19 03:39:07;;;;;;;8.02;4.95;;;;;;;9.19;77.26;101249.13;7392542;19;19999;-61
2023/03/19 03:41:32;;;;;;;8.55;5.25;;;;;;;9.22;77.02;101247.09;7392986;19;20327;-61
2023/03/19 03:43:58;;;;;;;8.25;5.20;;;;;;;9.20;77.21;101253.47;7390190;19;20013;-60
2023/03/19 03:46:23;;;;;;;9.55;5.45;;;;;;;9.22;77.13;101251.56;7393621;19;20014;-62
2023/03/19 03:48:50;;;;;;;8.65;5.60;;;;;;;9.25;77.25;101247.84;7391408;19;20067;-62
2023/03/19 03:51:16;;;;;;;8.40;5.03;;;;;;;9.25;77.05;101250.47;7393378;19;19998;-61
2023/03/19 03:53:42;;;;;;;12.15;5.40;;;;;;;9.23;77.03;101255.91;7395671;19;19990;-61
2023/03/19 03:56:07;;;;;;;9.50;5.78;;;;;;;9.21;77.24;101257.78;7393642;19;20513;-61
2023/03/19 03:58:33;;;;;;;9.73;5.45;;;;;;;9.19;77.13;101251.75;7393696;19;20006;-61
2023/03/19 04:00:58;;;;;;;9.13;5.40;;;;;;;9.15;77.43;101255.59;7396242;19;20006;-61
2023/03/19 04:03:24;;;;;;;10.75;5.80;;;;;;;9.13;77.27;101246.88;7395303;19;20324;-61
2023/03/19 04:05:50;;;;;;;9.65;5.20;;;;;;;9.14;77.48;101249.44;7394189;19;19994;-61
2023/03/19 04:08:15;;;;;;;10.50;5.53;;;;;;;9.14;77.29;101245.91;7394319;19;20010;-60
2023/03/19 04:10:42;;;;;;;10.13;5.85;;;;;;;9.08;77.74;101241.88;7393040;19;20316;-61
2023/03/19 04:13:09;;;;;;;10.32;5.90;;;;;;;9.15;77.29;101239.69;7394621;19;20006;-60
2023/03/19 04:15:34;;;;;;;7.53;5.03;;;;;;;9.15;77.28;101237.88;7394762;19;20002;-62
2023/03/19 04:18:00;;;;;;;9.95;6.18;;;;;;;9.16;77.43;101244.00;7393954;19;20030;-61
2023/03/19 04:20:26;;;;;;;9.80;5.60;;;;;;;9.25;77.11;101248.69;7393957;19;20398;-61
2023/03/19 04:22:51;;;;;;;10.98;6.07;;;;;;;9.20;76.96;101245.50;7394902;19;20021;-61
2023/03/19 04:25:17;;;;;;;10.82;5.88;;;;;;;9.14;77.26;101248.56;7391537;19;19999;-61
2023/03/19 04:27:44;;;;;;;10.55;6.38;;;;;;;9.08;77.75;101243.69;7393259;19;20015;-61
2023/03/19 04:30:11;;;;;;;10.88;6.53;;;;;;;9.12;77.59;101247.84;7394701;19;20007;-60
2023/03/19 04:32:37;;;;;;;12.48;6.55;;;;;;;9.09;77.53;101250.69;7394805;19;20009;-60
2023/03/19 04:35:02;;;;;;;11.35;7.53;;;;;;;9.11;77.40;101248.78;7393386;19;20347;-60
2023/03/19 04:37:29;;;;;;;11.15;7.07;;;;;;;9.12;77.40;101251.31;7392814;19;20002;-60
2023/03/19 04:39:54;;;;;;;10.82;6.65;;;;;;;9.10;77.60;101247.06;7393838;19;20003;-61
2023/03/19 04:42:20;;;;;;;10.98;6.93;;;;;;;9.11;77.61;101254.09;7393952;19;20463;-62
2023/03/19 04:44:46;;;;;;;11.63;7.10;;;;;;;9.05;77.79;101251.84;7392784;19;20102;-60
2023/03/19 04:47:11;;;;;;;11.60;7.15;;;;;;;9.07;77.59;101258.75;7393041;19;20308;-61
2023/03/19 04:49:37;;;;;;;10.50;6.35;;;;;;;9.04;77.71;101258.09;7390556;19;20003;-62
2023/03/19 04:52:03;;;;;;;10.30;6.75;;;;;;;9.01;77.91;101269.75;7392494;19;20431;-62
2023/03/19 04:54:29;;;;;;;10.40;6.38;;;;;;;9.00;77.91;101265.41;7393812;19;20023;-61
2023/03/19 04:56:54;;;;;;;10.50;6.88;;;;;;;9.03;78.01;101264.34;7391396;19;20402;-62
2023/03/19 04:59:21;;;;;;;11.70;6.78;;;;;;;9.12;77.78;101274.34;7392497;19;20444;-62
2023/03/19 05:01:46;;;;;;;9.75;6.60;;;;;;;9.18;77.65;101276.56;7394120;19;20014;-61
2023/03/19 05:04:12;;;;;;;12.20;7.38;;;;;;;9.13;78.16;101268.91;7392255;19;19998;-62
2023/03/19 05:06:38;;;;;;;12.48;7.45;;;;;;;9.14;78.18;101277.72;7392256;19;20447;-62
2023/03/19 05:09:05;;;;;;;12.43;7.55;;;;;;;9.13;78.02;101278.69;7391985;19;20042;-61
2023/03/19 05:11:31;;;;;;;11.93;7.93;;;;;;;9.13;78.13;101274.22;7396360;19;20025;-61
2023/03/19 05:13:56;;;;;;;11.88;7.78;;;;;;;9.12;78.19;101282.28;7392759;19;20371;-60
2023/03/19 05:16:22;;;;;;;10.98;7.80;;;;;;;9.06;78.72;101277.38;7392698;19;20003;-62
2023/03/19 05:18:47;;;;;;;12.63;8.38;;;;;;;9.11;78.35;101281.44;7390763;19;20006;-60
2023/03/19 05:21:13;;;;;;;12.73;7.88;;;;;;;9.06;78.69;101283.53;7392919;19;19998;-62
2023/03/19 05:23:39;;;;;;;13.48;8.40;;;;;;;9.08;78.73;101273.69;7391839;19;20027;-61
2023/03/19 05:26:05;;;;;;;13.15;7.85;;;;;;;9.08;78.59;101279.00;7391470;19;20023;-61
2023/03/19 05:28:31;;;;;;;13.15;8.13;;;;;;;9.09;79.09;101279.84;7391935;19;20005;-61
2023/03/19 05:30:57;;;;;;;13.40;8.32;;;;;;;9.08;79.13;101276.34;7392957;19;20017;-61
2023/03/19 05:33:22;;;;;;;14.32;8.93;;;;;;;9.06;78.95;101277.38;7392487;19;20695;-61
2023/03/19 05:35:48;;;;;;;13.25;8.70;;;;;;;8.96;79.39;101285.97;7391438;19;20022;-60
2023/03/19 05:38:14;;;;;;;13.35;8.50;;;;;;;8.98;79.32;101270.81;7393648;19;19994;-60
2023/03/19 05:40:41;;;;;;;12.77;7.97;;;;;;;9.01;78.81;101277.69;7390176;19;20026;-62
2023/03/19 05:43:08;;;;;;;12.23;8.73;;;;;;;9.00;78.90;101277.81;7386836;19;20013;-61
2023/03/19 05:45:34;;;;;;;12.15;7.90;;;;;;;8.96;79.30;101287.78;7389083;19;20340;-61
2023/03/19 05:48:00;;;;;;;11.98;8.52;;;;;;;8.94;79.19;101289.66;7390627;19;20013;-61
2023/03/19 05:50:26;;;;;;;12.68;8.60;;;;;;;8.92;79.27;101299.53;7391934;19;19999;-61
2023/03/19 05:52:52;;;;;;;13.10;8.65;;;;;;;8.88;79.30;101285.63;7391568;19;20526;-61
2023/03/19 05:55:17;;;;;;;14.13;9.05;;;;;;;8.84;79.43;101286.78;7391651;19;20013;-61
2023/03/19 05:57:43;;;;;;;11.68;7.97;;;;;;;8.85;79.22;101293.78;7391002;19;20487;-60
2023/03/19 06:00:09;;;;;;;16.02;8.80;;;;;;;8.81;79.48;101296.75;7391377;19;20037;-59
2023/03/19 06:02:35;;;;;;;12.98;8.95;;;;;;;8.69;80.04;101309.00;7391199;19;20002;-61
2023/03/19 06:05:01;;;;;;;13.70;8.88;;;;;;;8.72;79.91;101301.69;7389388;19;20010;-61
2023/03/19 06:07:26;;;;;;;13.35;9.38;;;;;;;8.80;79.49;101303.84;7391229;19;20070;-60
2023/03/19 06:09:58;;;;;;;14.65;9.75;;;;;;;8.79;79.66;101309.22;7389026;19;20008;-61
2023/03/19 06:12:24;;;;;;;14.02;9.20;;;;;;;8.80;79.55;101302.97;7390526;19;20018;-60
2023/03/19 06:14:50;;;;;;;14.13;9.50;;;;;;;8.89;79.15;101297.91;7389136;19;19995;-61
2023/03/19 06:17:16;;;;;;;12.75;8.23;;;;;;;8.87;79.71;101306.91;7390616;19;20332;-61
2023/03/19 06:19:41;;;;;;;14.45;9.30;;;;;;;9.03;79.19;101296.13;7389174;19;20004;-60
2023/03/19 06:22:13;;;;;;;16.33;9.75;;;;;;;9.02;79.39;101297.09;7390617;19;20328;-60
2023/03/19 06:24:38;;;;;;;26.63;17.90;;;;;;;8.94;79.58;101308.22;7387935;19;20039;-61
2023/03/19 06:27:04;;;;;;;24.75;16.42;;;;;;;8.94;79.77;101305.56;7389017;19;20365;-61
2023/03/19 06:29:29;;;;;;;19.45;13.43;;;;;;;8.95;79.90;101300.19;7389408;19;20003;-60
2023/03/19 06:31:55;;;;;;;17.80;12.23;;;;;;;9.00;80.07;101294.56;7391095;19;20299;-61
2023/03/19 06:34:21;;;;;;;16.20;11.43;;;;;;;9.07;79.72;101309.09;7390026;19;20006;-61
2023/03/19 06:36:46;;;;;;;15.75;11.07;;;;;;;9.09;79.75;101301.03;7390863;19;20005;-61
2023/03/19 06:39:12;;;;;;;16.58;9.88;;;;;;;9.20;79.37;101307.31;7389008;19;20023;-61
2023/03/19 06:41:38;;;;;;;14.25;9.10;;;;;;;9.28;78.98;101308.59;7390269;19;20006;-60
2023/03/19 06:44:04;;;;;;;13.52;8.68;;;;;;;9.28;78.89;101309.44;7389381;19;20325;-61
2023/03/19 06:46:30;;;;;;;13.57;8.60;;;;;;;9.34;78.54;101310.84;7389239;19;19995;-61
2023/03/19 06:48:56;;;;;;;14.88;9.25;;;;;;;9.35;78.44;101309.91;7389492;19;19994;-60
2023/03/19 06:51:22;;;;;;;13.07;8.68;;;;;;;9.40;78.13;101308.59;7390433;19;20006;-61
2023/03/19 06:53:47;;;;;;;14.02;9.13;;;;;;;9.43;78.18;101312.88;7388857;19;19995;-61
2023/03/19 06:56:12;;;;;;;14.82;8.63;;;;;;;9.54;77.50;101314.78;7388795;19;19994;-60
2023/03/19 06:58:38;;;;;;;12.40;8.90;;;;;;;9.63;77.42;101308.84;7386360;19;20010;-59
2023/03/19 07:01:04;;;;;;;11.63;7.57;;;;;;;9.76;76.63;101319.47;7396876;19;20005;-60
2023/03/19 07:03:30;;;;;;;11.88;8.60;;;;;;;9.81;76.35;101323.47;7396259;19;20026;-61
2023/03/19 07:05:55;;;;;;;15.13;9.15;;;;;;;9.80;76.46;101324.44;7398531;19;19999;-60
2023/03/19 07:08:21;;;;;;;12.73;8.63;;;;;;;9.81;76.19;101320.00;7395162;19;20006;-61
2023/03/19 07:10:46;;;;;;;13.20;8.27;;;;;;;9.92;76.01;101322.78;7391336;19;20015;-58
2023/03/19 07:13:12;;;;;;;14.15;8.85;;;;;;;10.11;75.07;101331.13;7396989;19;20002;-60
2023/03/19 07:15:37;;;;;;;12.88;8.20;;;;;;;10.26;74.64;101331.84;7396819;19;19991;-59
2023/03/19 07:18:03;;;;;;;14.75;8.48;;;;;;;10.25;74.86;101337.25;7397195;19;20070;-58
2023/03/19 07:20:32;;;;;;;13.80;8.93;;;;;;;10.20;74.68;101337.59;7394902;19;20007;-59
2023/03/19 07:22:57;;;;;;;12.93;8.48;;;;;;;10.14;74.92;101338.88;7397107;19;20011;-59
2023/03/19 07:25:22;;;;;;;13.60;8.88;;;;;;;10.19;74.90;101333.25;7393964;19;20002;-59
2023/03/19 07:27:48;;;;;;;12.85;8.70;;;;;;;10.27;74.58;101341.50;7397153;19;20022;-59
2023/03/19 07:30:14;;;;;;;14.15;8.27;;;;;;;10.34;74.13;101342.78;7394119;19;20335;-59
2023/03/19 07:32:41;;;;;;;14.18;9.30;;;;;;;10.39;74.00;101345.09;7395416;19;20032;-58
2023/03/19 07:35:08;;;;;;;15.30;8.50;;;;;;;10.34;74.02;101350.72;7395721;19;20010;-59
2023/03/19 07:37:33;;;;;;;15.45;8.30;;;;;;;10.37;74.25;101353.19;7397492;19;19994;-59
2023/03/19 07:39:59;;;;;;;14.98;7.50;;;;;;;10.32;74.20;101354.44;7397075;19;20462;-59
2023/03/19 07:42:24;;;;;;;13.35;8.40;;;;;;;10.29;74.26;101354.69;7397289;19;20336;-59
2023/03/19 07:44:50;;;;;;;13.50;8.65;;;;;;;10.28;74.19;101361.78;7393543;19;20490;-59
2023/03/19 07:47:16;;;;;;;13.20;8.55;;;;;;;10.34;74.47;101360.50;7397029;19;20003;-58
2023/03/19 07:49:41;;;;;;;13.00;8.20;;;;;;;10.27;74.54;101361.91;7396069;19;19994;-58
2023/03/19 07:52:07;;;;;;;13.55;8.15;;;;;;;10.34;74.30;101358.72;7394041;19;19995;-61
2023/03/19 07:54:32;;;;;;;13.57;8.52;;;;;;;10.26;74.64;101361.06;7395989;19;20026;-61
2023/03/19 07:56:58;;;;;;;13.15;7.75;;;;;;;10.32;74.25;101362.41;7396319;19;19991;-59
2023/03/19 07:59:24;;;;;;;14.70;8.27;;;;;;;10.40;74.22;101358.28;7395500;19;20485;-59
2023/03/19 08:01:49;;;;;;;13.60;8.20;;;;;;;10.53;74.04;101363.53;7394084;19;19995;-59
2023/03/19 08:04:15;;;;;;;12.65;8.20;;;;;;;10.58;73.62;101369.38;7395247;19;20339;-58
2023/03/19 08:06:41;;;;;;;11.20;7.60;;;;;;;10.68;73.15;101367.75;7395440;19;19994;-58
2023/03/19 08:09:06;;;;;;;13.85;8.18;;;;;;;10.67;73.18;101375.84;7396617;19;19991;-58
2023/03/19 08:11:32;;;;;;;13.35;7.55;;;;;;;10.56;73.55;101379.28;7392595;19;20494;-58
2023/03/19 08:13:58;;;;;;;13.10;8.02;;;;;;;10.54;73.86;101372.34;7394698;19;19995;-59
2023/03/19 08:16:23;;;;;;;13.40;8.10;;;;;;;10.54;73.93;101372.34;7395033;19;20003;-58
2023/03/19 08:18:49;;;;;;;13.52;8.23;;;;;;;10.63;73.50;101377.00;7395002;19;20340;-58
2023/03/19 08:21:15;;;;;;;13.32;8.43;;;;;;;10.71;73.13;101364.03;7393880;19;20032;-58
2023/03/19 08:23:40;;;;;;;13.02;7.78;;;;;;;10.70;72.76;101372.94;7394520;19;20333;-58
2023/03/19 08:26:07;;;;;;;12.90;7.63;;;;;;;10.82;72.78;101376.50;7394155;19;20010;-58
2023/03/19 08:28:32;;;;;;;13.07;8.23;;;;;;;10.91;72.59;101378.50;7395709;19;20026;-59
2023/03/19 08:31:05;;;;;;;12.68;8.40;;;;;;;10.99;72.08;101378.78;7393598;19;20003;-59
2023/03/19 08:33:31;;;;;;;14.37;7.70;;;;;;;11.01;72.34;101376.88;7394018;19;20474;-60
2023/03/19 08:36:04;;;;;;;13.35;7.50;;;;;;;11.02;72.34;101375.06;7393566;19;19999;-60
2023/03/19 08:38:30;;;;;;;14.77;8.10;;;;;;;11.04;72.24;101371.31;7395785;19;20006;-60
2023/03/19 08:41:00;;;;;;;13.80;8.00;;;;;;;11.10;72.04;101373.53;7393181;19;20003;-59
2023/03/19 08:43:27;;;;;;;12.57;7.50;;;;;;;11.20;71.65;101373.69;7392621;19;20011;-61
2023/03/19 08:45:52;;;;;;;11.63;7.55;;;;;;;11.23;71.35;101381.47;7394200;19;20006;-61
2023/03/19 08:48:18;;;;;;;17.30;8.05;;;;;;;11.29;71.41;101382.84;7395214;19;20474;-60
2023/03/19 08:50:43;;;;;;;13.90;7.82;;;;;;;11.30;71.38;101389.84;7393006;19;20686;-60
2023/03/19 08:53:09;;;;;;;12.50;7.88;;;;;;;11.36;71.22;101378.75;7394013;19;20535;-59
2023/03/19 08:55:34;;;;;;;14.60;7.70;;;;;;;11.40;71.08;101380.22;7393709;19;19994;-59
2023/03/19 08:58:00;;;;;;;12.32;7.72;;;;;;;11.37;71.17;101383.94;7394464;19;20015;-59
2023/03/19 09:00:26;;;;;;;14.05;7.32;;;;;;;11.36;71.62;101386.72;7389768;19;20010;-60
2023/03/19 09:02:52;;;;;;;13.48;7.72;;;;;;;11.45;71.34;101383.38;7392083;19;20025;-60
2023/03/19 09:05:21;;;;;;;14.75;7.45;;;;;;;11.51;71.36;101390.06;7390100;19;19994;-60
2023/03/19 09:07:48;;;;;;;14.48;7.25;;;;;;;11.47;71.38;101391.22;7393432;19;20031;-59
2023/03/19 09:10:14;;;;;;;12.40;6.95;;;;;;;11.43;71.21;101390.59;7389727;19;20070;-60
2023/03/19 09:12:39;;;;;;;13.38;7.63;;;;;;;11.41;71.60;101398.72;7391522;19;20027;-58
2023/03/19 09:15:06;;;;;;;12.18;7.13;;;;;;;11.46;71.14;101400.16;7392964;19;20023;-59
2023/03/19 09:17:31;;;;;;;11.77;6.78;;;;;;;11.61;70.58;101399.84;7393975;19;20057;-59
2023/03/19 09:19:57;;;;;;;12.57;7.40;;;;;;;11.66;70.64;101399.53;7393494;19;20019;-59
2023/03/19 09:22:23;;;;;;;11.35;6.57;;;;;;;11.75;69.92;101403.28;7389650;19;20075;-58
2023/03/19 09:24:48;;;;;;;12.88;6.93;;;;;;;11.95;69.58;101396.41;7391098;19;20077;-58
2023/03/19 09:27:14;;;;;;;10.60;6.82;;;;;;;12.03;69.36;101407.31;7392727;19;19994;-58
2023/03/19 09:29:40;;;;;;;11.63;6.97;;;;;;;12.07;69.50;101411.44;7391362;19;19991;-59
2023/03/19 09:32:05;;;;;;;11.63;7.30;;;;;;;12.16;69.07;101410.75;7390964;19;20006;-58
2023/03/19 09:34:31;;;;;;;13.45;6.82;;;;;;;12.19;69.17;101409.63;7391559;19;20086;-58
2023/03/19 09:36:57;;;;;;;11.38;6.90;;;;;;;12.19;69.17;101412.28;7390738;19;20006;-58
2023/03/19 09:39:22;;;;;;;11.23;7.03;;;;;;;12.20;68.83;101417.53;7391822;19;20462;-59
2023/03/19 09:42:06;;;;;;;13.10;7.68;;;;;;;12.32;68.50;101416.56;7390927;19;20420;-59
2023/03/19 09:44:38;;;;;;;11.93;7.30;;;;;;;12.39;68.06;101411.59;7391378;19;20029;-58
2023/03/19 09:47:20;;;;;;;11.90;6.70;;;;;;;12.47;67.70;101409.16;7390942;19;20220;-59
2023/03/19 09:49:49;;;;;;;12.77;6.93;;;;;;;12.39;68.01;101411.59;7392097;19;19998;-58
2023/03/19 09:52:15;;;;;;;11.40;6.65;;;;;;;12.32;68.20;101416.56;7390633;19;19998;-59
2023/03/19 09:54:47;;;;;;;12.60;7.18;;;;;;;12.33;67.84;101418.25;7391272;19;20001;-59
2023/03/19 09:57:13;;;;;;;16.27;7.95;;;;;;;12.27;68.19;101416.06;7391601;19;20003;-58
2023/03/19 09:59:39;;;;;;;12.85;7.22;;;;;;;12.22;68.17;101420.91;7392830;19;20012;-59
2023/03/19 10:02:32;;;;;;;13.07;7.20;;;;;;;12.21;68.41;101419.22;7390029;19;19998;-59
2023/03/19 10:05:04;;;;;;;11.73;7.10;;;;;;;12.34;68.13;101422.59;7389513;19;19999;-59
2023/03/19 10:07:32;;;;;;;12.38;7.70;;;;;;;12.55;67.00;101430.75;7391485;19;20002;-58
2023/03/19 10:10:23;;;;;;;11.73;7.00;;;;;;;12.72;66.39;101431.22;7392179;19;19991;-60
2023/03/19 10:13:19;;;;;;;11.68;7.07;;;;;;;12.87;65.53;101428.16;7387661;19;20015;-59
2023/03/19 10:15:48;;;;;;;13.15;7.40;;;;;;;12.95;65.95;101432.88;7390546;19;20320;-59
2023/03/19 10:18:35;;;;;;;13.65;7.20;;;;;;;13.00;64.87;101429.84;7390887;19;20134;-58
2023/03/19 10:21:23;;;;;;;12.18;7.82;;;;;;;13.02;65.23;101419.88;7390807;19;20066;-58
2023/03/19 10:24:00;;;;;;;12.05;6.90;;;;;;;13.11;64.50;101424.47;7390923;19;20455;-58
2023/03/19 10:26:34;;;;;;;13.40;7.25;;;;;;;13.23;63.62;101420.78;7391127;19;20090;-58
2023/03/19 10:29:05;;;;;;;;;;;;;;;13.37;62.73;101419.63;7392284;19;20003;-60
2023/03/19 10:32:07;;;;;;;10.57;6.03;;;;;;;13.40;62.68;101422.06;7390155;19;19927;-59
2023/03/19 10:34:41;;;;;;;13.30;6.57;;;;;;;13.42;62.62;101419.28;7395308;19;20009;-58
2023/03/19 10:37:15;;;;;;;12.40;6.80;;;;;;;13.35;62.29;101419.78;7399037;19;20006;-59
2023/03/19 10:39:45;;;;;;;12.75;7.20;;;;;;;13.27;63.32;101421.38;7399367;19;20029;-59
2023/03/19 10:42:36;;;;;;;11.60;6.72;;;;;;;13.24;63.53;101422.47;7396120;19;20015;-60
2023/03/19 10:45:04;;;;;;;13.73;7.07;;;;;;;13.17;63.84;101428.44;7396228;19;20106;-60
2023/03/19 10:47:38;;;;;;;11.60;6.78;;;;;;;13.06;63.75;101429.31;7397992;19;20026;-60
2023/03/19 10:50:04;;;;;;;11.45;6.10;;;;;;;13.03;64.26;101427.78;7399084;19;20052;-61
2023/03/19 10:52:34;;;;;;;11.15;6.05;;;;;;;13.07;63.98;101433.69;7397545;19;20017;-61
2023/03/19 10:55:17;;;;;;;11.65;6.15;;;;;;;13.22;63.13;101431.56;7397923;19;20006;-61
2023/03/19 10:57:47;;;;;;;12.30;6.88;;;;;;;13.23;63.05;101435.97;7397699;19;20001;-61
2023/03/19 11:00:21;;;;;;;10.75;6.30;;;;;;;13.13;63.21;101440.34;7397680;19;20078;-61
2023/03/19 11:02:52;;;;;;;;;;;;;;;12.94;63.63;101444.50;7398565;19;20006;-61
2023/03/19 11:05:23;;;;;;;13.18;8.90;;;;;;;12.79;65.07;101435.94;7392981;19;19953;-61
2023/03/19 11:07:56;;;;;;;12.77;7.32;;;;;;;12.74;64.78;101438.13;7398397;19;19998;-61
2023/03/19 11:10:25;;;;;;;13.70;8.02;;;;;;;12.88;64.50;101447.66;7396864;19;20009;-61
2023/03/19 11:12:59;;;;;;;14.23;8.75;;;;;;;12.95;64.13;101446.19;7394383;19;20514;-61
2023/03/19 11:15:42;;;;;;;13.02;8.15;;;;;;;12.94;64.19;101441.00;7397288;19;20006;-61
2023/03/19 11:18:23;;;;;;;15.18;8.52;;;;;;;12.83;64.46;101448.03;7394827;19;20482;-61
2023/03/19 11:21:06;;;;;;;13.50;8.05;;;;;;;12.74;65.21;101445.28;7396893;19;20028;-61
2023/03/19 11:23:40;;;;;;;13.32;7.85;;;;;;;12.74;65.35;101442.63;7397222;19;20002;-61
2023/03/19 11:26:06;;;;;;;12.00;7.47;;;;;;;12.71;65.17;101448.19;7396526;19;20125;-62
2023/03/19 11:28:36;;;;;;;12.10;7.43;;;;;;;12.72;64.94;101449.88;7397081;19;19999;-61